Time;durP1;ratioP1;P1;durP2;ratioP2;P2;SDS_P1;SDS_P2;PMS_P1;PMS_P2;Temp;Humidity;BMP_temperature;BMP_pressure;BME280_temperature;BME280_humidity;BME280_pressure;Samples;Min_cycle;Max_cycle;Signal;HPM_P1;HPM_P2
2023/04/15 00:01:17;;;;;;;16.08;9.48;;;;;;;10.55;92.73;99956.00;5075024;28;20053;-66
2023/04/15 00:03:46;;;;;;;16.67;10.30;;;;;;;10.38;94.52;99956.09;5076912;28;20423;-66
2023/04/15 00:06:13;;;;;;;16.00;10.98;;;;;;;10.58;93.98;99960.06;5071276;28;20330;-67
2023/04/15 00:08:41;;;;;;;16.55;10.90;;;;;;;10.39;94.50;99951.41;5057034;28;20052;-66
2023/04/15 00:11:08;;;;;;;16.20;10.48;;;;;;;10.50;94.38;99947.94;5074394;28;20051;-66
2023/04/15 00:13:36;;;;;;;16.38;10.45;;;;;;;10.38;94.41;99939.59;5075434;28;20130;-66
2023/04/15 00:16:05;;;;;;;16.23;10.02;;;;;;;10.50;94.15;99936.94;5075529;28;20048;-67
2023/04/15 00:18:34;;;;;;;17.50;9.60;;;;;;;10.60;94.20;99936.53;5076184;28;20056;-66
2023/04/15 00:21:02;;;;;;;16.90;10.57;;;;;;;10.58;94.03;99932.53;5073711;28;20048;-64
2023/04/15 00:23:30;;;;;;;17.40;11.40;;;;;;;10.55;94.01;99933.19;5076203;28;20059;-66
2023/04/15 00:25:57;;;;;;;17.52;11.45;;;;;;;10.78;93.45;99916.03;5075387;28;20056;-66
2023/04/15 00:28:25;;;;;;;20.80;11.35;;;;;;;10.72;92.76;99917.34;5077599;28;20052;-66
2023/04/15 00:30:52;;;;;;;17.75;11.10;;;;;;;10.58;93.49;99919.56;5074180;28;20044;-66
2023/04/15 00:33:19;;;;;;;18.05;11.18;;;;;;;10.58;93.99;99916.00;5041851;28;20052;-66
2023/04/15 00:35:46;;;;;;;18.60;11.55;;;;;;;10.55;94.01;99917.47;5073884;28;20063;-66
2023/04/15 00:38:14;;;;;;;16.25;11.75;;;;;;;10.54;94.78;99924.13;5077176;28;20393;-66
2023/04/15 00:40:42;;;;;;;17.30;11.27;;;;;;;10.45;95.16;99915.09;5073186;28;20059;-66
2023/04/15 00:43:09;;;;;;;18.13;11.18;;;;;;;10.48;95.15;99913.63;5076461;28;20483;-66
2023/04/15 00:45:37;;;;;;;17.27;11.90;;;;;;;10.58;95.58;99916.00;5074233;28;20048;-67
2023/04/15 00:48:04;;;;;;;16.05;11.85;;;;;;;10.35;95.63;99911.91;5076390;28;20053;-66
2023/04/15 00:50:32;;;;;;;17.20;11.43;;;;;;;10.31;96.98;99911.75;5074793;28;20067;-67
2023/04/15 00:53:00;;;;;;;16.95;11.60;;;;;;;10.23;97.24;99904.38;5075283;28;20049;-66
2023/04/15 00:55:27;;;;;;;17.45;11.43;;;;;;;10.16;98.17;99904.84;5074198;28;20052;-66
2023/04/15 00:57:56;;;;;;;18.25;11.68;;;;;;;10.47;98.43;99910.06;5076251;28;20049;-67
2023/04/15 01:00:23;;;;;;;17.77;12.23;;;;;;;10.47;97.48;99904.56;5076076;28;20057;-67
2023/04/15 01:02:51;;;;;;;17.10;11.63;;;;;;;10.59;97.27;99899.16;5075008;28;20052;-67
2023/04/15 01:05:18;;;;;;;16.90;11.27;;;;;;;10.50;98.00;99898.38;5074600;28;20052;-67
2023/04/15 01:07:47;;;;;;;15.70;11.75;;;;;;;10.35;98.14;99903.66;5074465;28;20045;-67
2023/04/15 01:10:14;;;;;;;17.25;11.95;;;;;;;10.30;98.86;99904.66;5076890;28;20525;-67
2023/04/15 01:12:42;;;;;;;18.05;11.57;;;;;;;10.49;98.89;99902.28;5075217;28;20041;-68
2023/04/15 01:15:09;;;;;;;16.67;12.20;;;;;;;10.47;98.98;99888.03;5058519;28;20056;-67
2023/04/15 01:17:38;;;;;;;18.08;12.25;;;;;;;10.46;99.00;99886.41;5074994;28;20526;-66
2023/04/15 01:20:09;;;;;;;14.30;10.13;;;;;;;10.61;99.25;99874.84;5074990;28;20471;-66
2023/04/15 01:22:37;;;;;;;14.07;10.48;;;;;;;10.43;99.29;99887.09;5073810;28;20467;-66
2023/04/15 01:25:17;;;;;;;14.65;9.65;;;;;;;10.23;100.00;99876.84;5076289;28;20052;-66
2023/04/15 01:27:45;;;;;;;12.73;9.25;;;;;;;9.98;100.00;99881.28;5074462;28;20450;-66
2023/04/15 01:30:12;;;;;;;14.35;10.40;;;;;;;10.10;100.00;99875.13;5073564;28;20105;-66
2023/04/15 01:32:40;;;;;;;15.30;10.85;;;;;;;10.17;100.00;99878.97;5054247;28;20535;-66
2023/04/15 01:35:08;;;;;;;14.48;11.20;;;;;;;10.35;100.00;99879.69;5076292;28;20049;-66
2023/04/15 01:37:36;;;;;;;13.65;10.13;;;;;;;10.38;100.00;99887.28;5055472;28;20065;-67
2023/04/15 01:40:04;;;;;;;15.18;11.00;;;;;;;10.16;100.00;99882.06;5075912;28;20060;-67
2023/04/15 01:42:32;;;;;;;14.18;9.77;;;;;;;10.23;100.00;99885.88;5073661;28;20052;-66
2023/04/15 01:44:59;;;;;;;12.85;9.93;;;;;;;10.20;100.00;99886.56;5074437;28;20044;-67
2023/04/15 01:47:27;;;;;;;13.85;9.88;;;;;;;10.27;100.00;99880.53;5074838;28;20052;-67
2023/04/15 01:49:55;;;;;;;13.60;9.98;;;;;;;10.38;100.00;99889.22;5071539;28;20056;-67
2023/04/15 01:52:22;;;;;;;14.02;9.70;;;;;;;10.35;100.00;99898.97;5073126;28;20048;-67
2023/04/15 01:54:49;;;;;;;11.30;9.30;;;;;;;10.33;100.00;99903.16;5076306;28;20483;-67
2023/04/15 01:57:18;;;;;;;13.50;9.75;;;;;;;10.20;100.00;99902.25;5074327;28;20044;-65
2023/04/15 01:59:45;;;;;;;12.35;9.50;;;;;;;10.33;100.00;99900.41;5054124;28;20052;-67
2023/04/15 02:02:14;;;;;;;11.80;8.55;;;;;;;10.37;100.00;99899.44;5052256;28;20049;-66
2023/04/15 02:04:41;;;;;;;9.90;7.25;;;;;;;10.10;100.00;99911.69;5055813;28;20048;-67
2023/04/15 02:07:09;;;;;;;7.90;5.97;;;;;;;10.29;100.00;99903.03;5070637;28;20844;-66
2023/04/15 02:09:37;;;;;;;8.23;6.20;;;;;;;10.34;100.00;99908.34;5075805;28;20056;-66
2023/04/15 02:12:07;;;;;;;7.35;4.95;;;;;;;10.30;100.00;99907.41;5056935;28;20056;-66
2023/04/15 02:14:34;;;;;;;6.55;4.18;;;;;;;9.84;100.00;99910.13;5057336;28;20059;-67
2023/04/15 02:17:06;;;;;;;6.72;3.97;;;;;;;9.89;100.00;99920.94;5073610;28;20511;-66
2023/04/15 02:19:34;;;;;;;5.85;3.65;;;;;;;9.81;100.00;99925.38;5041467;28;20049;-66
2023/04/15 02:22:02;;;;;;;6.18;3.60;;;;;;;9.96;100.00;99919.31;5076553;28;20049;-66
2023/04/15 02:24:30;;;;;;;5.50;3.60;;;;;;;9.78;100.00;99931.50;5054383;28;20048;-66
2023/04/15 02:26:57;;;;;;;6.55;4.10;;;;;;;9.62;100.00;99937.84;5067076;28;20507;-66
2023/04/15 02:29:25;;;;;;;8.13;5.18;;;;;;;9.35;100.00;99938.19;5057004;28;20448;-67
2023/04/15 02:31:52;;;;;;;6.68;4.95;;;;;;;9.18;100.00;99944.50;5073716;28;20048;-65
2023/04/15 02:34:19;;;;;;;7.88;5.45;;;;;;;9.18;100.00;99935.44;5075275;28;20064;-66
2023/04/15 02:36:48;;;;;;;8.10;6.32;;;;;;;9.26;100.00;99931.91;5073859;28;20060;-66
2023/04/15 02:39:17;;;;;;;8.95;6.57;;;;;;;9.22;100.00;99944.66;5073841;28;20048;-65
2023/04/15 02:41:50;;;;;;;9.13;6.70;;;;;;;9.21;100.00;99943.84;5054048;28;20064;-66
2023/04/15 02:44:19;;;;;;;9.35;7.07;;;;;;;9.13;100.00;99952.91;5075325;28;20060;-67
2023/04/15 02:46:51;;;;;;;10.02;8.07;;;;;;;9.17;100.00;99955.81;5071211;28;20431;-66
2023/04/15 02:49:18;;;;;;;;;;;;;;;9.07;100.00;99963.25;5041311;28;20056;-66
2023/04/15 02:51:48;;;;;;;11.55;8.13;;;;;;;9.17;100.00;99973.09;5071666;28;20371;-66
2023/04/15 02:54:19;;;;;;;10.25;8.40;;;;;;;9.29;100.00;99967.78;5072519;28;20061;-67
2023/04/15 02:56:46;;;;;;;11.98;9.15;;;;;;;9.16;100.00;99963.25;5071115;28;20048;-69
2023/04/15 02:59:14;;;;;;;11.65;9.00;;;;;;;9.21;100.00;99978.75;5073187;28;20048;-66
2023/04/15 03:01:41;;;;;;;16.35;9.20;;;;;;;9.25;100.00;99974.25;5064755;28;20045;-67
2023/04/15 03:04:09;;;;;;;12.10;9.27;;;;;;;9.10;100.00;99979.06;5053527;28;20720;-66
2023/04/15 03:06:36;;;;;;;11.48;8.55;;;;;;;9.33;100.00;99993.47;5062280;28;20055;-66
2023/04/15 03:09:04;;;;;;;11.30;8.40;;;;;;;9.25;100.00;99999.78;5075343;28;20055;-67
2023/04/15 03:11:35;;;;;;;11.57;8.57;;;;;;;9.13;100.00;99994.91;5055984;28;20044;-66
2023/04/15 03:14:03;;;;;;;14.13;8.02;;;;;;;9.49;100.00;100002.88;5073481;28;20385;-66
2023/04/15 03:16:34;;;;;;;9.70;7.40;;;;;;;9.34;100.00;100000.59;5071479;28;20056;-66
2023/04/15 03:19:02;;;;;;;11.82;7.88;;;;;;;9.37;100.00;100002.69;5073257;28;20070;-67
2023/04/15 03:21:32;;;;;;;10.82;7.40;;;;;;;9.32;100.00;100010.28;5071812;28;20503;-66
2023/04/15 03:24:00;;;;;;;10.18;7.53;;;;;;;9.10;100.00;100027.69;5073767;28;20063;-66
2023/04/15 03:26:29;;;;;;;9.10;6.82;;;;;;;9.17;100.00;100014.31;5054423;28;20542;-66
2023/04/15 03:29:00;;;;;;;8.90;5.97;;;;;;;9.26;100.00;100022.59;5053944;28;20053;-65
2023/04/15 03:31:28;;;;;;;7.07;5.50;;;;;;;9.12;100.00;100025.44;5064822;28;20430;-66
2023/04/15 03:33:56;;;;;;;9.20;5.82;;;;;;;9.10;100.00;100034.03;5073882;28;20498;-68
2023/04/15 03:36:23;;;;;;;8.05;5.65;;;;;;;9.15;100.00;100029.50;5072567;28;20048;-67
2023/04/15 03:38:50;;;;;;;8.48;5.75;;;;;;;8.99;100.00;100034.66;5074581;28;20048;-67
2023/04/15 03:41:17;;;;;;;11.52;5.97;;;;;;;9.04;100.00;100027.06;5072967;28;20060;-66
2023/04/15 03:43:45;;;;;;;7.10;5.10;;;;;;;9.10;100.00;100034.03;5073518;28;20045;-66
2023/04/15 03:46:12;;;;;;;9.85;5.53;;;;;;;9.09;100.00;100040.66;5054272;28;20049;-66
2023/04/15 03:48:40;;;;;;;7.70;4.82;;;;;;;9.05;100.00;100044.34;5073971;28;20064;-67
2023/04/15 03:51:07;;;;;;;9.90;5.10;;;;;;;8.80;100.00;100047.84;5072373;28;20044;-66
2023/04/15 03:53:35;;;;;;;8.82;4.45;;;;;;;8.71;100.00;100055.22;5071718;28;20045;-66
2023/04/15 03:56:02;;;;;;;7.10;3.58;;;;;;;8.56;100.00;100050.97;5071265;28;20052;-66
2023/04/15 03:58:29;;;;;;;6.40;3.47;;;;;;;8.66;100.00;100069.91;5071165;28;20052;-67
2023/04/15 04:00:57;;;;;;;5.07;2.78;;;;;;;8.62;100.00;100059.88;5072439;28;20053;-65
2023/04/15 04:03:24;;;;;;;5.35;2.50;;;;;;;8.59;100.00;100050.34;5074081;28;20044;-66
2023/04/15 04:05:52;;;;;;;8.13;2.97;;;;;;;8.68;100.00;100066.84;5072658;28;20053;-66
2023/04/15 04:08:20;;;;;;;6.78;2.72;;;;;;;8.57;100.00;100066.31;5072593;28;20052;-65
2023/04/15 04:10:47;;;;;;;8.88;2.90;;;;;;;8.47;100.00;100074.81;5072730;28;20056;-66
2023/04/15 04:13:15;;;;;;;7.10;2.95;;;;;;;8.68;100.00;100070.38;5056441;28;20048;-65
2023/04/15 04:15:42;;;;;;;10.25;3.40;;;;;;;8.73;100.00;100069.44;5072817;28;20057;-66
2023/04/15 04:18:10;;;;;;;9.68;4.18;;;;;;;8.76;100.00;100068.81;5073366;28;20071;-66
2023/04/15 04:20:37;;;;;;;12.68;5.75;;;;;;;9.08;100.00;100061.00;5072738;28;20107;-66
2023/04/15 04:23:05;;;;;;;10.43;6.15;;;;;;;9.05;100.00;100069.88;5074349;28;20055;-65
2023/04/15 04:25:33;;;;;;;9.80;5.68;;;;;;;9.02;100.00;100072.47;5075914;28;20056;-67
2023/04/15 04:28:00;;;;;;;8.77;5.65;;;;;;;8.95;100.00;100075.69;5075540;28;20057;-66
2023/04/15 04:30:28;;;;;;;13.90;7.13;;;;;;;8.86;100.00;100082.25;5076506;28;20522;-65
2023/04/15 04:32:55;;;;;;;9.90;6.07;;;;;;;8.94;100.00;100086.97;5076440;28;20091;-64
2023/04/15 04:35:22;;;;;;;8.38;6.38;;;;;;;8.78;100.00;100088.53;5075745;28;20060;-65
2023/04/15 04:37:51;;;;;;;9.30;5.30;;;;;;;8.75;100.00;100098.19;5076341;28;20052;-65
2023/04/15 04:40:18;;;;;;;7.97;3.80;;;;;;;8.61;100.00;100092.00;5076124;28;20071;-65
2023/04/15 04:42:46;;;;;;;6.15;3.97;;;;;;;8.76;100.00;100099.00;5091642;28;20052;-66
2023/04/15 04:45:13;;;;;;;4.07;2.20;;;;;;;8.53;100.00;100101.00;5059404;28;20052;-66
2023/04/15 04:47:41;;;;;;;5.07;2.35;;;;;;;8.58;100.00;100109.09;5074714;28;20055;-65
2023/04/15 04:50:09;;;;;;;2.97;1.90;;;;;;;8.90;100.00;100111.53;5059333;28;20055;-64
2023/04/15 04:52:37;;;;;;;3.53;1.75;;;;;;;8.87;100.00;100109.38;5076031;28;20055;-67
2023/04/15 04:55:05;;;;;;;2.47;1.60;;;;;;;9.04;100.00;100116.91;5058892;28;20048;-67
2023/04/15 04:57:34;;;;;;;2.55;1.60;;;;;;;8.92;100.00;100124.94;5073846;28;20056;-64
2023/04/15 05:00:03;;;;;;;2.33;1.40;;;;;;;9.03;100.00;100123.53;5075944;28;20056;-64
2023/04/15 05:02:31;;;;;;;2.78;1.33;;;;;;;8.89;100.00;100131.84;5071849;28;20057;-64
2023/04/15 05:04:59;;;;;;;4.78;1.58;;;;;;;8.78;100.00;100132.47;5074743;28;20056;-65
2023/04/15 05:07:26;;;;;;;2.22;1.30;;;;;;;8.71;100.00;100143.09;5039718;28;20415;-64
2023/04/15 05:09:53;;;;;;;3.67;1.52;;;;;;;8.95;100.00;100143.53;5075829;28;20057;-66
2023/04/15 05:12:21;;;;;;;3.08;1.38;;;;;;;8.75;100.00;100150.38;5073924;28;20063;-66
2023/04/15 05:14:48;;;;;;;6.00;2.03;;;;;;;8.80;100.00;100152.19;5076221;28;20507;-66
2023/04/15 05:17:16;;;;;;;2.25;1.50;;;;;;;8.83;100.00;100157.84;5074978;28;20067;-66
2023/04/15 05:19:43;;;;;;;4.32;1.85;;;;;;;8.76;100.00;100168.47;5076795;28;20131;-65
2023/04/15 05:22:10;;;;;;;3.05;1.90;;;;;;;8.98;100.00;100168.41;5073459;28;20052;-66
2023/04/15 05:24:38;;;;;;;3.90;1.85;;;;;;;8.94;100.00;100177.63;5074815;28;20055;-64
2023/04/15 05:27:07;;;;;;;5.97;2.00;;;;;;;8.85;100.00;100182.25;5075171;28;20048;-65
2023/04/15 05:29:34;;;;;;;5.73;1.80;;;;;;;8.82;100.00;100186.44;5075125;28;20049;-66
2023/04/15 05:32:02;;;;;;;3.35;1.67;;;;;;;8.65;100.00;100212.97;5073655;28;20055;-64
2023/04/15 05:34:29;;;;;;;4.22;1.98;;;;;;;8.61;100.00;100198.25;5075369;28;20056;-64
2023/04/15 05:36:56;;;;;;;4.45;1.95;;;;;;;8.51;100.00;100210.28;5072996;28;20063;-64
2023/04/15 05:39:24;;;;;;;4.45;1.70;;;;;;;8.51;100.00;100207.53;5076304;28;20052;-64
2023/04/15 05:41:51;;;;;;;2.75;1.45;;;;;;;8.62;100.00;100219.91;5073611;28;20063;-66
2023/04/15 05:44:18;;;;;;;2.65;1.45;;;;;;;8.64;100.00;100214.91;5075334;28;20059;-67
2023/04/15 05:46:46;;;;;;;2.35;1.60;;;;;;;8.64;100.00;100217.66;5074552;28;20063;-67
2023/04/15 05:49:13;;;;;;;1.92;1.10;;;;;;;8.61;100.00;100234.75;5074838;28;20503;-66
2023/04/15 05:51:41;;;;;;;2.83;1.13;;;;;;;8.75;100.00;100230.00;5074270;28;20052;-64
2023/04/15 05:54:08;;;;;;;3.25;1.20;;;;;;;8.56;100.00;100236.81;5073990;28;20144;-64
2023/04/15 05:56:35;;;;;;;1.60;0.73;;;;;;;8.67;100.00;100251.91;5074233;28;20048;-64
2023/04/15 05:59:03;;;;;;;2.47;1.10;;;;;;;8.65;100.00;100248.66;5075489;28;20061;-64
2023/04/15 06:01:30;;;;;;;1.83;1.20;;;;;;;8.47;100.00;100274.38;5056354;28;20048;-64
2023/04/15 06:03:57;;;;;;;4.20;1.42;;;;;;;8.58;100.00;100262.81;5075783;28;20059;-63
2023/04/15 06:06:26;;;;;;;2.72;1.10;;;;;;;8.62;100.00;100257.53;5073990;28;20055;-64
2023/04/15 06:08:54;;;;;;;2.05;1.10;;;;;;;8.63;100.00;100261.91;5074198;28;20052;-64
2023/04/15 06:11:22;;;;;;;2.95;1.30;;;;;;;8.47;100.00;100290.84;5073936;28;20052;-64
2023/04/15 06:13:49;;;;;;;3.25;1.10;;;;;;;8.46;100.00;100290.00;5075482;28;20496;-65
2023/04/15 06:16:16;;;;;;;2.28;1.13;;;;;;;8.48;100.00;100293.25;5072017;28;20114;-66
2023/04/15 06:18:44;;;;;;;2.20;1.20;;;;;;;8.49;100.00;100310.56;5060522;28;20056;-64
2023/04/15 06:21:12;;;;;;;2.20;1.10;;;;;;;8.29;100.00;100314.56;5062573;28;20056;-65
2023/04/15 06:23:40;;;;;;;2.00;1.20;;;;;;;8.36;100.00;100328.66;5075775;28;20059;-65
2023/04/15 06:26:07;;;;;;;2.70;1.50;;;;;;;8.44;100.00;100325.19;5072621;28;20438;-66
2023/04/15 06:28:34;;;;;;;1.95;1.30;;;;;;;8.38;100.00;100336.59;5074595;28;20062;-66
2023/04/15 06:31:02;;;;;;;2.47;1.30;;;;;;;8.42;100.00;100343.09;5073977;28;20057;-65
2023/04/15 06:33:30;;;;;;;2.40;1.40;;;;;;;8.51;100.00;100322.81;5075380;28;20051;-64
2023/04/15 06:35:58;;;;;;;3.33;1.40;;;;;;;8.51;100.00;100353.03;5072203;28;20067;-64
2023/04/15 06:38:25;;;;;;;5.57;1.50;;;;;;;8.41;100.00;100353.25;5075092;28;20051;-65
2023/04/15 06:40:52;;;;;;;3.00;1.65;;;;;;;8.51;100.00;100354.94;5070515;28;20060;-66
2023/04/15 06:43:19;;;;;;;5.28;1.83;;;;;;;8.48;100.00;100370.13;5053174;28;20059;-66
2023/04/15 06:45:47;;;;;;;3.97;1.80;;;;;;;8.46;100.00;100366.84;5059501;28;20063;-67
2023/04/15 06:48:14;;;;;;;4.03;1.60;;;;;;;8.50;100.00;100369.78;5074715;28;20053;-64
2023/04/15 06:50:41;;;;;;;3.65;1.50;;;;;;;8.45;100.00;100386.38;5055102;28;20055;-66
2023/04/15 06:53:09;;;;;;;3.25;1.80;;;;;;;8.59;100.00;100389.91;5073852;28;20048;-66
2023/04/15 06:55:36;;;;;;;2.75;1.52;;;;;;;8.48;100.00;100392.06;5072556;28;20507;-66
2023/04/15 06:58:03;;;;;;;4.78;1.95;;;;;;;8.58;100.00;100402.00;5071909;28;20056;-67
2023/04/15 07:00:32;;;;;;;2.40;1.38;;;;;;;8.42;100.00;100400.72;5073249;28;20048;-67
2023/04/15 07:03:02;;;;;;;2.75;1.42;;;;;;;8.53;100.00;100413.09;5074371;28;20049;-65
2023/04/15 07:05:31;;;;;;;2.88;1.42;;;;;;;8.63;100.00;100404.66;5073975;28;20045;-68
2023/04/15 07:07:59;;;;;;;3.70;1.60;;;;;;;8.48;100.00;100410.47;5055627;28;20060;-67
2023/04/15 07:10:26;;;;;;;3.22;1.73;;;;;;;8.51;100.00;100415.31;5071984;28;20061;-67
2023/04/15 07:12:53;;;;;;;4.50;1.70;;;;;;;8.68;100.00;100423.75;5071925;28;20053;-67
2023/04/15 07:15:21;;;;;;;4.20;1.98;;;;;;;8.59;100.00;100423.69;5073144;28;20056;-67
2023/04/15 07:17:48;;;;;;;3.08;1.92;;;;;;;8.60;100.00;100449.19;5069016;28;20056;-66
2023/04/15 07:20:16;;;;;;;4.00;2.00;;;;;;;8.51;100.00;100434.53;5072366;28;20048;-67
2023/04/15 07:22:43;;;;;;;5.07;2.10;;;;;;;8.58;100.00;100441.25;5071070;28;20052;-65
2023/04/15 07:25:11;;;;;;;2.67;1.85;;;;;;;8.83;100.00;100454.44;5064599;28;20408;-67
2023/04/15 07:27:38;;;;;;;3.35;1.90;;;;;;;8.62;100.00;100449.69;5063372;28;20124;-67
2023/04/15 07:30:06;;;;;;;4.00;1.98;;;;;;;8.65;100.00;100449.06;5055662;28;20053;-66
2023/04/15 07:32:34;;;;;;;5.55;1.85;;;;;;;8.81;100.00;100464.91;5071093;28;20399;-66
2023/04/15 07:35:02;;;;;;;4.22;1.77;;;;;;;8.51;100.00;100460.06;5073289;28;20045;-66
2023/04/15 07:37:29;;;;;;;3.53;1.40;;;;;;;8.64;100.00;100472.97;5071924;28;20151;-65
2023/04/15 07:39:57;;;;;;;3.13;1.70;;;;;;;8.50;100.00;100474.09;5073390;28;20059;-66
2023/04/15 07:42:24;;;;;;;3.15;1.80;;;;;;;8.40;100.00;100488.84;5072265;28;20055;-68
2023/04/15 07:44:51;;;;;;;4.50;1.80;;;;;;;8.58;100.00;100481.59;5056612;28;20411;-66
2023/04/15 07:47:19;;;;;;;3.17;1.63;;;;;;;8.47;100.00;100486.50;5038475;28;20423;-66
2023/04/15 07:49:46;;;;;;;4.95;1.80;;;;;;;8.41;100.00;100512.44;5073592;28;20051;-67
2023/04/15 07:52:14;;;;;;;3.55;1.88;;;;;;;8.45;100.00;100507.97;5072252;28;20057;-67
2023/04/15 07:54:41;;;;;;;5.57;2.08;;;;;;;8.46;100.00;100512.31;5087846;28;20055;-66
2023/04/15 07:57:08;;;;;;;3.58;1.90;;;;;;;8.43;100.00;100512.13;5079671;28;20064;-66
2023/04/15 07:59:35;;;;;;;3.65;2.20;;;;;;;8.49;100.00;100536.41;5071774;28;20055;-66
2023/04/15 08:02:03;;;;;;;6.05;2.20;;;;;;;8.64;100.00;100536.13;5077501;28;20067;-67
2023/04/15 08:04:31;;;;;;;4.65;2.20;;;;;;;8.65;100.00;100529.50;5071852;28;20516;-67
2023/04/15 08:06:59;;;;;;;6.37;2.20;;;;;;;8.76;100.00;100538.34;5065173;28;20057;-65
2023/04/15 08:09:27;;;;;;;4.57;2.13;;;;;;;8.69;100.00;100535.19;5072828;28;20058;-67
2023/04/15 08:11:55;;;;;;;4.50;2.30;;;;;;;8.95;100.00;100542.63;5063758;28;20084;-65
2023/04/15 08:14:23;;;;;;;5.22;2.60;;;;;;;9.19;100.00;100547.06;5065055;28;20630;-67
2023/04/15 08:16:51;;;;;;;5.40;2.28;;;;;;;8.89;100.00;100556.78;5062418;28;20047;-67
2023/04/15 08:19:18;;;;;;;5.13;2.20;;;;;;;8.98;100.00;100554.91;5065060;28;20052;-67
2023/04/15 08:21:46;;;;;;;3.95;2.00;;;;;;;8.96;100.00;100568.97;5066955;28;20267;-65
2023/04/15 08:24:13;;;;;;;7.35;2.25;;;;;;;9.12;100.00;100576.91;5055186;28;20052;-64
2023/04/15 08:26:40;;;;;;;3.78;1.58;;;;;;;9.05;100.00;100586.34;5070945;28;20487;-67
2023/04/15 08:29:08;;;;;;;5.07;1.63;;;;;;;9.15;100.00;100590.03;5066914;28;20419;-65
2023/04/15 08:31:35;;;;;;;4.53;1.67;;;;;;;9.16;100.00;100592.44;5049824;28;20063;-66
2023/04/15 08:34:02;;;;;;;3.33;1.50;;;;;;;9.20;100.00;100592.66;5066943;28;20048;-65
2023/04/15 08:36:31;;;;;;;2.95;1.65;;;;;;;9.28;100.00;100609.22;5063210;28;20064;-66
2023/04/15 08:39:00;;;;;;;2.95;1.50;;;;;;;9.26;100.00;100603.22;5066989;28;20056;-67
2023/04/15 08:41:34;;;;;;;2.40;1.30;;;;;;;9.30;100.00;100607.00;5065314;28;20049;-64
2023/04/15 08:44:03;;;;;;;1.90;1.30;;;;;;;9.34;100.00;100620.94;5075915;28;20296;-65
2023/04/15 08:46:33;;;;;;;2.70;1.47;;;;;;;9.54;100.00;100625.97;5068317;28;20056;-65
2023/04/15 08:49:03;;;;;;;2.88;1.48;;;;;;;9.37;100.00;100623.88;5061232;28;20045;-67
2023/04/15 08:51:31;;;;;;;4.72;1.75;;;;;;;9.27;100.00;100626.84;5061700;28;20055;-67
2023/04/15 08:54:00;;;;;;;4.22;1.60;;;;;;;9.54;100.00;100640.56;5064937;28;20067;-66
2023/04/15 08:56:31;;;;;;;2.42;1.40;;;;;;;9.56;100.00;100637.50;5064158;28;20412;-65
2023/04/15 08:58:59;;;;;;;2.05;1.20;;;;;;;9.40;100.00;100652.69;5066562;28;20502;-67
2023/04/15 09:01:27;;;;;;;2.53;0.95;;;;;;;10.14;100.00;100641.94;5063669;28;20071;-67
2023/04/15 09:03:55;;;;;;;2.20;1.10;;;;;;;10.31;96.69;100655.00;5052857;28;20055;-67
2023/04/15 09:06:24;;;;;;;2.05;1.10;;;;;;;10.31;95.71;100657.75;5044498;28;20645;-65
2023/04/15 09:08:51;;;;;;;3.20;1.40;;;;;;;10.06;97.76;100664.66;5066392;28;20119;-65
2023/04/15 09:11:21;;;;;;;3.13;1.45;;;;;;;9.77;98.24;100674.41;5061976;28;20053;-67
2023/04/15 09:13:48;;;;;;;2.13;1.30;;;;;;;9.72;99.63;100678.13;5072970;28;20048;-67
2023/04/15 09:16:16;;;;;;;2.25;1.10;;;;;;;9.80;99.69;100682.88;5031540;28;20381;-68
2023/04/15 09:18:43;;;;;;;2.00;1.08;;;;;;;9.73;94.99;100681.66;5059862;28;20059;-66
2023/04/15 09:21:12;;;;;;;4.78;1.08;;;;;;;9.54;94.60;100701.03;5065691;28;20056;-67
2023/04/15 09:23:53;;;;;;;1.80;1.05;;;;;;;9.53;95.69;100706.84;5065696;28;20392;-67
2023/04/15 09:26:35;;;;;;;3.33;1.17;;;;;;;9.49;97.05;100708.56;5054922;28;20822;-67
2023/04/15 09:29:12;;;;;;;3.78;1.50;;;;;;;9.60;96.11;100710.00;5076795;28;20055;-68
2023/04/15 09:31:40;;;;;;;4.22;1.63;;;;;;;9.46;98.54;100722.94;5045286;28;20159;-68
2023/04/15 09:34:07;;;;;;;1.77;1.13;;;;;;;9.23;100.00;100730.25;5063365;28;20052;-66
2023/04/15 09:36:57;;;;;;;2.00;1.20;;;;;;;9.25;100.00;100752.78;5061602;28;20124;-63
2023/04/15 09:39:26;;;;;;;2.35;1.40;;;;;;;9.33;100.00;100741.06;5064499;28;20047;-64
2023/04/15 09:42:05;;;;;;;2.85;1.52;;;;;;;9.47;99.40;100743.81;5055812;28;20037;-66
2023/04/15 09:44:34;;;;;;;3.15;1.20;;;;;;;9.44;98.26;100756.25;5058506;28;20055;-67
2023/04/15 09:47:02;;;;;;;2.50;1.25;;;;;;;9.30;98.12;100755.41;5047647;28;20852;-66
2023/04/15 09:49:34;;;;;;;2.50;1.25;;;;;;;9.45;98.03;100763.34;5039932;28;20061;-68
2023/04/15 09:52:02;;;;;;;2.50;1.17;;;;;;;9.39;96.50;100772.84;5058105;28;20044;-71
2023/04/15 09:54:35;;;;;;;3.00;1.40;;;;;;;9.23;96.70;100770.66;5060215;28;20059;-67
2023/04/15 09:57:08;;;;;;;3.10;1.50;;;;;;;9.41;97.46;100783.53;5062392;28;20510;-67
2023/04/15 09:59:36;;;;;;;2.45;1.30;;;;;;;9.57;96.48;100788.41;5059704;28;20048;-65
2023/04/15 10:02:07;;;;;;;4.05;1.60;;;;;;;9.67;95.57;100784.66;5058231;28;20591;-67
2023/04/15 10:04:39;;;;;;;3.35;1.25;;;;;;;9.87;94.97;100787.81;5061985;28;20055;-66
2023/04/15 10:07:11;;;;;;;2.55;1.30;;;;;;;10.30;91.93;100798.47;5065938;28;20169;-64
2023/04/15 10:09:38;;;;;;;3.50;1.52;;;;;;;10.40;91.17;100796.31;5061996;28;20070;-64
2023/04/15 10:12:06;;;;;;;3.15;1.55;;;;;;;10.46;91.00;100792.31;5071233;28;20041;-64
2023/04/15 10:14:34;;;;;;;4.38;1.77;;;;;;;10.58;91.31;100803.63;5041532;28;20044;-67
2023/04/15 10:17:03;;;;;;;3.72;1.50;;;;;;;10.59;89.12;100809.91;5055861;28;20044;-66
2023/04/15 10:19:33;;;;;;;3.22;1.40;;;;;;;10.58;87.47;100828.41;5059660;28;20041;-65
2023/04/15 10:22:01;;;;;;;2.07;1.23;;;;;;;10.51;89.36;100822.50;5025187;28;20041;-65
2023/04/15 10:24:30;;;;;;;3.17;1.50;;;;;;;10.54;88.28;100826.56;5040899;28;20303;-65
2023/04/15 10:26:59;;;;;;;3.58;1.50;;;;;;;10.58;86.84;100819.31;5057278;28;20052;-67
2023/04/15 10:29:27;;;;;;;2.85;1.30;;;;;;;10.45;87.28;100831.16;5062007;28;20049;-65
2023/04/15 10:31:55;;;;;;;4.47;1.30;;;;;;;10.54;88.44;100837.56;5059146;28;20385;-65
2023/04/15 10:34:23;;;;;;;4.63;1.70;;;;;;;10.81;87.69;100838.28;5062917;28;20098;-66
2023/04/15 10:36:55;;;;;;;2.33;1.00;;;;;;;10.76;86.98;100848.63;5061564;28;20049;-67
2023/04/15 10:39:32;;;;;;;2.35;1.38;;;;;;;10.80;85.71;100838.63;5064535;28;20056;-68
2023/04/15 10:42:14;;;;;;;1.80;1.15;;;;;;;10.94;85.24;100845.72;5061969;28;20040;-67
2023/04/15 10:44:52;;;;;;;2.50;1.20;;;;;;;10.98;85.09;100854.16;5059690;28;20122;-66
2023/04/15 10:47:21;;;;;;;3.25;1.45;;;;;;;10.72;85.53;100853.94;5063230;28;20048;-65
2023/04/15 10:49:59;;;;;;;3.40;1.42;;;;;;;11.01;85.27;100846.09;5060488;28;20066;-66
2023/04/15 10:52:28;;;;;;;2.38;1.23;;;;;;;11.10;85.41;100858.00;5033823;28;20048;-65
2023/04/15 10:55:04;;;;;;;2.20;1.00;;;;;;;10.68;84.83;100861.22;5063153;28;20053;-68
2023/04/15 10:57:38;;;;;;;2.33;1.08;;;;;;;10.89;84.05;100872.56;5045025;28;20396;-65
2023/04/15 11:00:15;;;;;;;4.07;1.30;;;;;;;10.96;83.06;100862.75;5061676;28;20079;-65
2023/04/15 11:03:05;;;;;;;2.15;1.30;;;;;;;10.82;83.66;100877.69;5062033;28;20047;-65
2023/04/15 11:05:51;;;;;;;2.53;1.20;;;;;;;11.04;83.67;100883.22;5058910;28;20420;-64
2023/04/15 11:08:19;;;;;;;3.30;1.70;;;;;;;11.16;84.76;100887.06;5070651;28;20046;-65
2023/04/15 11:10:47;;;;;;;5.05;1.50;;;;;;;11.10;85.28;100887.50;5062116;28;20067;-65
2023/04/15 11:13:17;;;;;;;3.00;1.65;;;;;;;11.19;85.60;100896.66;5059298;28;20059;-64
2023/04/15 11:15:46;;;;;;;2.05;1.10;;;;;;;10.82;83.12;100908.84;5057463;28;20048;-65
2023/04/15 11:18:15;;;;;;;1.75;1.00;;;;;;;10.67;83.75;100903.66;5062006;28;20045;-67
2023/04/15 11:20:44;;;;;;;1.55;1.20;;;;;;;10.80;84.21;100904.75;5059144;28;20049;-65
2023/04/15 11:23:12;;;;;;;1.95;1.10;;;;;;;10.84;82.28;100914.03;5062127;28;20044;-64
2023/04/15 11:25:42;;;;;;;3.58;1.65;;;;;;;10.83;82.35;100904.94;5057469;28;20059;-65
2023/04/15 11:28:11;;;;;;;3.83;1.30;;;;;;;10.94;83.02;100911.03;5064457;28;20067;-65
2023/04/15 11:30:39;;;;;;;3.60;1.50;;;;;;;11.10;82.80;100910.38;5059977;28;20057;-65